sensor_id;sensor_type;location;lat;lon;timestamp;pressure;altitude;pressure_sealevel;temperature;humidity
46241;BME280;31961;52.416;-0.732;2023-01-19T00:01:42;99608.43;;;-0.59;100.00
46241;BME280;31961;52.416;-0.732;2023-01-19T00:04:10;99612.15;;;-1.27;100.00
46241;BME280;31961;52.416;-0.732;2023-01-19T00:06:37;99613.56;;;-1.15;100.00
46241;BME280;31961;52.416;-0.732;2023-01-19T00:09:04;99609.19;;;-0.60;100.00
46241;BME280;31961;52.416;-0.732;2023-01-19T00:11:32;99612.20;;;-0.20;100.00
46241;BME280;31961;52.416;-0.732;2023-01-19T00:13:59;99616.13;;;-0.18;100.00
46241;BME280;31961;52.416;-0.732;2023-01-19T00:16:26;99622.84;;;-0.04;100.00
46241;BME280;31961;52.416;-0.732;2023-01-19T00:18:54;99630.74;;;0.27;100.00
46241;BME280;31961;52.416;-0.732;2023-01-19T00:21:21;99632.76;;;-0.54;100.00
46241;BME280;31961;52.416;-0.732;2023-01-19T00:23:49;99635.71;;;-1.23;100.00
46241;BME280;31961;52.416;-0.732;2023-01-19T00:26:16;99635.32;;;-1.57;100.00
46241;BME280;31961;52.416;-0.732;2023-01-19T00:28:44;99634.05;;;-1.15;100.00
46241;BME280;31961;52.416;-0.732;2023-01-19T00:31:12;99631.17;;;-1.04;100.00
46241;BME280;31961;52.416;-0.732;2023-01-19T00:33:39;99630.97;;;-1.52;100.00
46241;BME280;31961;52.416;-0.732;2023-01-19T00:36:08;99637.50;;;-1.55;100.00
46241;BME280;31961;52.416;-0.732;2023-01-19T00:38:35;99635.02;;;-1.74;100.00
46241;BME280;31961;52.416;-0.732;2023-01-19T00:41:03;99638.40;;;-3.53;100.00
46241;BME280;31961;52.416;-0.732;2023-01-19T00:43:30;99643.01;;;-2.45;100.00
46241;BME280;31961;52.416;-0.732;2023-01-19T00:45:57;99645.55;;;-2.05;100.00
46241;BME280;31961;52.416;-0.732;2023-01-19T00:48:24;99643.87;;;-1.07;100.00
46241;BME280;31961;52.416;-0.732;2023-01-19T00:50:51;99650.81;;;-2.10;100.00
46241;BME280;31961;52.416;-0.732;2023-01-19T00:53:18;99646.94;;;-0.67;100.00
46241;BME280;31961;52.416;-0.732;2023-01-19T00:55:46;99643.56;;;-0.43;100.00
46241;BME280;31961;52.416;-0.732;2023-01-19T00:58:12;99640.64;;;-0.02;100.00
46241;BME280;31961;52.416;-0.732;2023-01-19T01:00:40;99645.44;;;-0.31;100.00
46241;BME280;31961;52.416;-0.732;2023-01-19T01:03:09;99643.97;;;-0.37;100.00
46241;BME280;31961;52.416;-0.732;2023-01-19T01:05:39;99639.46;;;-0.66;100.00
46241;BME280;31961;52.416;-0.732;2023-01-19T01:08:07;99643.50;;;-2.65;100.00
46241;BME280;31961;52.416;-0.732;2023-01-19T01:10:34;99645.08;;;-1.20;100.00
46241;BME280;31961;52.416;-0.732;2023-01-19T01:13:01;99638.60;;;-0.25;100.00
46241;BME280;31961;52.416;-0.732;2023-01-19T01:15:28;99644.62;;;-0.30;100.00
46241;BME280;31961;52.416;-0.732;2023-01-19T01:17:55;99645.07;;;-0.82;100.00
46241;BME280;31961;52.416;-0.732;2023-01-19T01:20:26;99646.56;;;-0.09;100.00
46241;BME280;31961;52.416;-0.732;2023-01-19T01:22:55;99647.30;;;-0.16;100.00
46241;BME280;31961;52.416;-0.732;2023-01-19T01:25:24;99649.74;;;-0.64;100.00
46241;BME280;31961;52.416;-0.732;2023-01-19T01:27:53;99649.93;;;0.17;100.00
46241;BME280;31961;52.416;-0.732;2023-01-19T01:30:21;99647.14;;;0.04;100.00
46241;BME280;31961;52.416;-0.732;2023-01-19T01:32:49;99649.77;;;0.17;100.00
46241;BME280;31961;52.416;-0.732;2023-01-19T01:35:17;99649.97;;;-0.38;100.00
46241;BME280;31961;52.416;-0.732;2023-01-19T01:37:44;99645.54;;;-0.72;100.00
46241;BME280;31961;52.416;-0.732;2023-01-19T01:40:13;99645.01;;;-0.42;100.00
46241;BME280;31961;52.416;-0.732;2023-01-19T01:42:41;99640.97;;;-0.64;100.00
46241;BME280;31961;52.416;-0.732;2023-01-19T01:45:30;99643.35;;;-1.54;100.00
46241;BME280;31961;52.416;-0.732;2023-01-19T01:48:02;99642.56;;;-0.86;100.00
46241;BME280;31961;52.416;-0.732;2023-01-19T01:50:34;99642.61;;;-1.90;100.00
46241;BME280;31961;52.416;-0.732;2023-01-19T01:53:07;99638.29;;;-0.40;100.00
46241;BME280;31961;52.416;-0.732;2023-01-19T01:55:39;99638.88;;;-0.55;100.00
46241;BME280;31961;52.416;-0.732;2023-01-19T01:58:10;99644.45;;;-0.82;100.00
46241;BME280;31961;52.416;-0.732;2023-01-19T02:00:39;99651.10;;;-1.40;100.00
46241;BME280;31961;52.416;-0.732;2023-01-19T02:03:07;99653.12;;;-2.39;100.00
46241;BME280;31961;52.416;-0.732;2023-01-19T02:05:35;99655.19;;;-3.46;100.00
46241;BME280;31961;52.416;-0.732;2023-01-19T02:08:06;99658.74;;;-3.52;100.00
46241;BME280;31961;52.416;-0.732;2023-01-19T02:10:35;99662.56;;;-4.25;100.00
46241;BME280;31961;52.416;-0.732;2023-01-19T02:13:03;99659.83;;;-2.98;100.00
46241;BME280;31961;52.416;-0.732;2023-01-19T02:15:30;99667.06;;;-4.12;100.00
46241;BME280;31961;52.416;-0.732;2023-01-19T02:17:57;99671.69;;;-4.59;100.00
46241;BME280;31961;52.416;-0.732;2023-01-19T02:20:27;99683.24;;;-4.99;100.00
46241;BME280;31961;52.416;-0.732;2023-01-19T02:23:01;99677.36;;;-4.50;100.00
46241;BME280;31961;52.416;-0.732;2023-01-19T02:25:29;99682.35;;;-5.05;100.00
46241;BME280;31961;52.416;-0.732;2023-01-19T02:27:57;99678.12;;;-3.88;100.00
46241;BME280;31961;52.416;-0.732;2023-01-19T02:30:26;99674.65;;;-4.56;100.00
46241;BME280;31961;52.416;-0.732;2023-01-19T02:32:53;99676.17;;;-3.20;100.00
46241;BME280;31961;52.416;-0.732;2023-01-19T02:35:21;99665.46;;;-2.61;100.00
46241;BME280;31961;52.416;-0.732;2023-01-19T02:37:48;99664.14;;;-1.74;100.00
46241;BME280;31961;52.416;-0.732;2023-01-19T02:40:18;99670.91;;;-1.41;100.00
46241;BME280;31961;52.416;-0.732;2023-01-19T02:42:49;99666.68;;;-0.84;100.00
46241;BME280;31961;52.416;-0.732;2023-01-19T02:45:19;99659.70;;;-1.14;100.00
46241;BME280;31961;52.416;-0.732;2023-01-19T02:47:49;99659.77;;;-1.02;100.00
46241;BME280;31961;52.416;-0.732;2023-01-19T02:50:36;99662.97;;;-1.90;100.00
46241;BME280;31961;52.416;-0.732;2023-01-19T02:53:11;99658.04;;;-1.04;100.00
46241;BME280;31961;52.416;-0.732;2023-01-19T02:55:45;99661.33;;;-1.71;100.00
46241;BME280;31961;52.416;-0.732;2023-01-19T02:58:20;99658.29;;;-1.23;100.00
46241;BME280;31961;52.416;-0.732;2023-01-19T03:00:57;99652.41;;;-0.85;100.00
46241;BME280;31961;52.416;-0.732;2023-01-19T03:03:31;99653.60;;;-0.49;100.00
46241;BME280;31961;52.416;-0.732;2023-01-19T03:06:04;99659.63;;;-0.84;100.00
46241;BME280;31961;52.416;-0.732;2023-01-19T03:08:41;99662.54;;;-0.73;100.00
46241;BME280;31961;52.416;-0.732;2023-01-19T03:11:11;99660.37;;;-0.53;100.00
46241;BME280;31961;52.416;-0.732;2023-01-19T03:13:43;99661.35;;;-0.58;100.00
46241;BME280;31961;52.416;-0.732;2023-01-19T03:16:16;99657.15;;;-0.47;100.00
46241;BME280;31961;52.416;-0.732;2023-01-19T03:18:50;99662.27;;;-0.61;100.00
46241;BME280;31961;52.416;-0.732;2023-01-19T03:21:18;99660.45;;;-0.72;100.00
46241;BME280;31961;52.416;-0.732;2023-01-19T03:23:48;99656.50;;;-0.73;100.00
46241;BME280;31961;52.416;-0.732;2023-01-19T03:26:19;99656.70;;;-0.76;100.00
46241;BME280;31961;52.416;-0.732;2023-01-19T03:28:50;99658.76;;;-0.74;100.00
46241;BME280;31961;52.416;-0.732;2023-01-19T03:31:21;99658.70;;;-1.67;100.00
46241;BME280;31961;52.416;-0.732;2023-01-19T03:33:53;99655.87;;;-1.35;100.00
46241;BME280;31961;52.416;-0.732;2023-01-19T03:36:26;99659.14;;;-1.86;100.00
46241;BME280;31961;52.416;-0.732;2023-01-19T03:38:57;99663.92;;;-1.42;100.00
46241;BME280;31961;52.416;-0.732;2023-01-19T03:41:27;99659.95;;;-1.21;100.00
46241;BME280;31961;52.416;-0.732;2023-01-19T03:43:56;99656.52;;;-1.11;100.00
46241;BME280;31961;52.416;-0.732;2023-01-19T03:46:24;99652.70;;;-0.92;100.00
46241;BME280;31961;52.416;-0.732;2023-01-19T03:48:52;99647.64;;;-1.37;100.00
46241;BME280;31961;52.416;-0.732;2023-01-19T03:51:21;99652.39;;;-0.85;100.00
46241;BME280;31961;52.416;-0.732;2023-01-19T03:53:48;99650.21;;;-1.10;100.00
46241;BME280;31961;52.416;-0.732;2023-01-19T03:56:18;99654.94;;;-1.49;100.00
46241;BME280;31961;52.416;-0.732;2023-01-19T03:58:46;99656.28;;;-1.95;100.00
46241;BME280;31961;52.416;-0.732;2023-01-19T04:01:14;99655.87;;;-3.15;100.00
46241;BME280;31961;52.416;-0.732;2023-01-19T04:03:42;99655.61;;;-3.82;100.00
46241;BME280;31961;52.416;-0.732;2023-01-19T04:06:12;99656.04;;;-2.56;100.00
46241;BME280;31961;52.416;-0.732;2023-01-19T04:08:39;99656.01;;;-3.23;100.00
46241;BME280;31961;52.416;-0.732;2023-01-19T04:11:07;99653.90;;;-3.91;100.00
46241;BME280;31961;52.416;-0.732;2023-01-19T04:13:35;99654.21;;;-3.81;100.00
46241;BME280;31961;52.416;-0.732;2023-01-19T04:16:03;99655.14;;;-4.32;100.00
46241;BME280;31961;52.416;-0.732;2023-01-19T04:18:32;99654.01;;;-3.64;100.00
46241;BME280;31961;52.416;-0.732;2023-01-19T04:21:00;99661.87;;;-4.62;100.00
46241;BME280;31961;52.416;-0.732;2023-01-19T04:23:28;99670.51;;;-5.04;100.00
46241;BME280;31961;52.416;-0.732;2023-01-19T04:25:56;99667.20;;;-4.96;100.00
46241;BME280;31961;52.416;-0.732;2023-01-19T04:28:24;99660.99;;;-4.72;100.00
46241;BME280;31961;52.416;-0.732;2023-01-19T04:30:52;99661.58;;;-5.31;100.00
46241;BME280;31961;52.416;-0.732;2023-01-19T04:33:20;99655.62;;;-4.36;100.00
46241;BME280;31961;52.416;-0.732;2023-01-19T04:35:49;99654.78;;;-4.34;100.00
46241;BME280;31961;52.416;-0.732;2023-01-19T04:38:16;99656.92;;;-3.32;100.00
46241;BME280;31961;52.416;-0.732;2023-01-19T04:40:43;99649.23;;;-3.74;100.00
46241;BME280;31961;52.416;-0.732;2023-01-19T04:43:10;99646.90;;;-3.83;100.00
46241;BME280;31961;52.416;-0.732;2023-01-19T04:45:37;99645.28;;;-2.98;100.00
46241;BME280;31961;52.416;-0.732;2023-01-19T04:48:05;99638.99;;;-2.77;100.00
46241;BME280;31961;52.416;-0.732;2023-01-19T04:50:32;99642.09;;;-3.56;100.00
46241;BME280;31961;52.416;-0.732;2023-01-19T04:52:59;99646.96;;;-2.50;100.00
46241;BME280;31961;52.416;-0.732;2023-01-19T04:55:27;99647.63;;;-1.66;100.00
46241;BME280;31961;52.416;-0.732;2023-01-19T04:57:54;99642.53;;;-1.36;100.00
46241;BME280;31961;52.416;-0.732;2023-01-19T05:00:21;99641.53;;;-1.45;100.00
46241;BME280;31961;52.416;-0.732;2023-01-19T05:02:48;99641.98;;;-2.18;100.00
46241;BME280;31961;52.416;-0.732;2023-01-19T05:05:15;99643.41;;;-2.75;100.00
46241;BME280;31961;52.416;-0.732;2023-01-19T05:07:43;99646.18;;;-2.49;100.00
46241;BME280;31961;52.416;-0.732;2023-01-19T05:10:11;99649.38;;;-1.51;100.00
46241;BME280;31961;52.416;-0.732;2023-01-19T05:12:38;99645.08;;;-0.93;100.00
46241;BME280;31961;52.416;-0.732;2023-01-19T05:15:07;99643.63;;;-0.83;100.00
46241;BME280;31961;52.416;-0.732;2023-01-19T05:17:34;99638.13;;;-0.71;100.00
46241;BME280;31961;52.416;-0.732;2023-01-19T05:20:02;99636.12;;;-0.44;100.00
46241;BME280;31961;52.416;-0.732;2023-01-19T05:22:30;99639.56;;;-0.26;100.00
46241;BME280;31961;52.416;-0.732;2023-01-19T05:24:57;99633.87;;;-0.20;100.00
46241;BME280;31961;52.416;-0.732;2023-01-19T05:27:24;99642.81;;;-1.76;100.00
46241;BME280;31961;52.416;-0.732;2023-01-19T05:29:51;99637.21;;;-0.54;100.00
46241;BME280;31961;52.416;-0.732;2023-01-19T05:32:19;99636.93;;;-1.06;100.00
46241;BME280;31961;52.416;-0.732;2023-01-19T05:34:46;99638.15;;;-1.26;100.00
46241;BME280;31961;52.416;-0.732;2023-01-19T05:37:13;99631.94;;;-0.57;100.00
46241;BME280;31961;52.416;-0.732;2023-01-19T05:39:40;99632.39;;;-0.75;100.00
46241;BME280;31961;52.416;-0.732;2023-01-19T05:42:07;99632.55;;;-1.06;100.00
46241;BME280;31961;52.416;-0.732;2023-01-19T05:44:33;99640.96;;;-2.31;100.00
46241;BME280;31961;52.416;-0.732;2023-01-19T05:47:00;99645.02;;;-2.04;100.00
46241;BME280;31961;52.416;-0.732;2023-01-19T05:49:27;99644.92;;;-1.47;100.00
46241;BME280;31961;52.416;-0.732;2023-01-19T05:51:54;99645.88;;;-1.59;100.00
46241;BME280;31961;52.416;-0.732;2023-01-19T05:54:21;99636.73;;;-1.46;100.00
46241;BME280;31961;52.416;-0.732;2023-01-19T05:56:48;99637.83;;;-1.54;100.00
46241;BME280;31961;52.416;-0.732;2023-01-19T05:59:16;99642.10;;;-1.66;100.00
46241;BME280;31961;52.416;-0.732;2023-01-19T06:01:43;99637.38;;;-1.45;100.00
46241;BME280;31961;52.416;-0.732;2023-01-19T06:04:11;99635.18;;;-1.26;100.00
46241;BME280;31961;52.416;-0.732;2023-01-19T06:06:38;99636.20;;;-1.48;100.00
46241;BME280;31961;52.416;-0.732;2023-01-19T06:09:05;99639.14;;;-2.04;100.00
46241;BME280;31961;52.416;-0.732;2023-01-19T06:11:32;99636.42;;;-2.49;100.00
46241;BME280;31961;52.416;-0.732;2023-01-19T06:13:59;99635.97;;;-2.24;100.00
46241;BME280;31961;52.416;-0.732;2023-01-19T06:16:26;99639.47;;;-2.61;100.00
46241;BME280;31961;52.416;-0.732;2023-01-19T06:18:53;99637.85;;;-2.82;100.00
46241;BME280;31961;52.416;-0.732;2023-01-19T06:21:20;99635.77;;;-3.38;100.00
46241;BME280;31961;52.416;-0.732;2023-01-19T06:23:48;99639.54;;;-2.35;100.00
46241;BME280;31961;52.416;-0.732;2023-01-19T06:26:15;99641.97;;;-2.43;100.00
46241;BME280;31961;52.416;-0.732;2023-01-19T06:28:42;99644.51;;;-2.40;100.00
46241;BME280;31961;52.416;-0.732;2023-01-19T06:31:09;99644.50;;;-2.26;100.00
46241;BME280;31961;52.416;-0.732;2023-01-19T06:33:36;99647.78;;;-2.14;100.00
46241;BME280;31961;52.416;-0.732;2023-01-19T06:36:04;99649.70;;;-2.88;100.00
46241;BME280;31961;52.416;-0.732;2023-01-19T06:38:32;99651.77;;;-1.91;100.00
46241;BME280;31961;52.416;-0.732;2023-01-19T06:40:59;99654.18;;;-2.07;100.00
46241;BME280;31961;52.416;-0.732;2023-01-19T06:43:27;99653.09;;;-2.21;100.00
46241;BME280;31961;52.416;-0.732;2023-01-19T06:45:54;99655.46;;;-2.16;100.00
46241;BME280;31961;52.416;-0.732;2023-01-19T06:48:22;99663.10;;;-1.71;100.00
46241;BME280;31961;52.416;-0.732;2023-01-19T06:50:49;99661.43;;;-3.53;100.00
46241;BME280;31961;52.416;-0.732;2023-01-19T06:53:17;99667.39;;;-4.35;100.00
46241;BME280;31961;52.416;-0.732;2023-01-19T06:55:44;99667.13;;;-3.13;100.00
46241;BME280;31961;52.416;-0.732;2023-01-19T06:58:12;99666.91;;;-3.09;100.00
46241;BME280;31961;52.416;-0.732;2023-01-19T07:00:39;99670.20;;;-2.10;100.00
46241;BME280;31961;52.416;-0.732;2023-01-19T07:03:07;99669.21;;;-2.21;100.00
46241;BME280;31961;52.416;-0.732;2023-01-19T07:05:35;99677.01;;;-1.53;100.00
46241;BME280;31961;52.416;-0.732;2023-01-19T07:08:02;99678.20;;;-1.37;100.00
46241;BME280;31961;52.416;-0.732;2023-01-19T07:10:30;99676.49;;;-0.78;100.00
46241;BME280;31961;52.416;-0.732;2023-01-19T07:12:57;99681.25;;;-0.60;100.00
46241;BME280;31961;52.416;-0.732;2023-01-19T07:15:25;99681.68;;;-0.54;100.00
46241;BME280;31961;52.416;-0.732;2023-01-19T07:17:52;99684.59;;;-1.34;100.00
46241;BME280;31961;52.416;-0.732;2023-01-19T07:20:19;99683.66;;;-0.84;100.00
46241;BME280;31961;52.416;-0.732;2023-01-19T07:22:46;99685.48;;;-1.20;100.00
46241;BME280;31961;52.416;-0.732;2023-01-19T07:25:20;99681.32;;;-1.22;100.00
46241;BME280;31961;52.416;-0.732;2023-01-19T07:27:48;99681.50;;;-0.95;100.00
46241;BME280;31961;52.416;-0.732;2023-01-19T07:30:15;99688.49;;;-1.31;100.00
46241;BME280;31961;52.416;-0.732;2023-01-19T07:32:42;99688.95;;;-1.23;100.00
46241;BME280;31961;52.416;-0.732;2023-01-19T07:35:09;99689.62;;;-1.77;100.00
46241;BME280;31961;52.416;-0.732;2023-01-19T07:37:37;99689.84;;;-1.74;100.00
46241;BME280;31961;52.416;-0.732;2023-01-19T07:40:05;99687.83;;;-2.15;100.00
46241;BME280;31961;52.416;-0.732;2023-01-19T07:42:33;99685.85;;;-2.22;100.00
46241;BME280;31961;52.416;-0.732;2023-01-19T07:45:01;99692.07;;;-2.41;100.00
46241;BME280;31961;52.416;-0.732;2023-01-19T07:47:28;99693.91;;;-3.31;100.00
46241;BME280;31961;52.416;-0.732;2023-01-19T07:49:55;99691.06;;;-3.69;100.00
46241;BME280;31961;52.416;-0.732;2023-01-19T07:52:22;99691.61;;;-4.46;100.00
46241;BME280;31961;52.416;-0.732;2023-01-19T07:54:49;99689.44;;;-4.74;100.00
46241;BME280;31961;52.416;-0.732;2023-01-19T07:57:16;99691.37;;;-4.85;100.00
46241;BME280;31961;52.416;-0.732;2023-01-19T07:59:44;99689.62;;;-4.96;100.00
46241;BME280;31961;52.416;-0.732;2023-01-19T08:02:11;99687.63;;;-3.87;100.00
46241;BME280;31961;52.416;-0.732;2023-01-19T08:04:38;99690.33;;;-3.63;100.00
46241;BME280;31961;52.416;-0.732;2023-01-19T08:07:05;99688.60;;;-3.96;100.00
46241;BME280;31961;52.416;-0.732;2023-01-19T08:09:32;99685.80;;;-2.27;100.00
46241;BME280;31961;52.416;-0.732;2023-01-19T08:12:00;99690.13;;;-1.60;100.00
46241;BME280;31961;52.416;-0.732;2023-01-19T08:14:27;99696.59;;;-1.58;100.00
46241;BME280;31961;52.416;-0.732;2023-01-19T08:16:58;99699.86;;;-1.27;100.00
46241;BME280;31961;52.416;-0.732;2023-01-19T08:19:26;99703.65;;;-1.45;100.00
46241;BME280;31961;52.416;-0.732;2023-01-19T08:21:53;99707.79;;;-0.76;100.00
46241;BME280;31961;52.416;-0.732;2023-01-19T08:24:21;99716.65;;;-1.57;100.00
46241;BME280;31961;52.416;-0.732;2023-01-19T08:26:49;99716.43;;;-1.88;100.00
46241;BME280;31961;52.416;-0.732;2023-01-19T08:29:17;99721.53;;;-1.45;100.00
46241;BME280;31961;52.416;-0.732;2023-01-19T08:31:44;99723.30;;;-1.18;100.00
46241;BME280;31961;52.416;-0.732;2023-01-19T08:34:10;99719.60;;;-1.49;100.00
46241;BME280;31961;52.416;-0.732;2023-01-19T08:36:37;99721.52;;;-1.25;100.00
46241;BME280;31961;52.416;-0.732;2023-01-19T08:39:05;99719.80;;;-1.98;100.00
46241;BME280;31961;52.416;-0.732;2023-01-19T08:41:32;99715.00;;;-2.73;100.00
46241;BME280;31961;52.416;-0.732;2023-01-19T08:43:59;99717.17;;;-3.29;100.00
46241;BME280;31961;52.416;-0.732;2023-01-19T08:46:26;99722.72;;;-3.62;100.00
46241;BME280;31961;52.416;-0.732;2023-01-19T08:48:53;99725.46;;;-3.46;100.00
46241;BME280;31961;52.416;-0.732;2023-01-19T08:51:20;99726.25;;;-3.54;100.00
46241;BME280;31961;52.416;-0.732;2023-01-19T08:53:47;99728.23;;;-2.82;100.00
46241;BME280;31961;52.416;-0.732;2023-01-19T08:56:14;99729.42;;;-3.11;100.00
46241;BME280;31961;52.416;-0.732;2023-01-19T08:58:43;99722.02;;;-3.14;100.00
46241;BME280;31961;52.416;-0.732;2023-01-19T09:01:12;99721.49;;;-1.90;100.00
46241;BME280;31961;52.416;-0.732;2023-01-19T09:03:39;99722.60;;;-1.63;100.00
46241;BME280;31961;52.416;-0.732;2023-01-19T09:06:07;99726.89;;;-2.11;100.00
46241;BME280;31961;52.416;-0.732;2023-01-19T09:08:35;99727.63;;;-1.23;100.00
46241;BME280;31961;52.416;-0.732;2023-01-19T09:11:03;99728.09;;;-2.01;100.00
46241;BME280;31961;52.416;-0.732;2023-01-19T09:13:30;99727.78;;;-2.27;100.00
46241;BME280;31961;52.416;-0.732;2023-01-19T09:15:57;99726.80;;;-2.26;100.00
46241;BME280;31961;52.416;-0.732;2023-01-19T09:18:24;99727.46;;;-2.28;100.00
46241;BME280;31961;52.416;-0.732;2023-01-19T09:20:51;99729.08;;;-2.68;100.00
46241;BME280;31961;52.416;-0.732;2023-01-19T09:23:19;99728.86;;;-2.18;100.00
46241;BME280;31961;52.416;-0.732;2023-01-19T09:25:47;99731.75;;;-2.38;100.00
46241;BME280;31961;52.416;-0.732;2023-01-19T09:28:16;99742.24;;;-3.08;100.00
46241;BME280;31961;52.416;-0.732;2023-01-19T09:30:43;99748.85;;;-2.98;100.00
46241;BME280;31961;52.416;-0.732;2023-01-19T09:33:13;99752.05;;;-3.58;100.00
46241;BME280;31961;52.416;-0.732;2023-01-19T09:35:42;99758.15;;;-2.82;100.00
46241;BME280;31961;52.416;-0.732;2023-01-19T09:38:10;99757.49;;;-3.19;100.00
46241;BME280;31961;52.416;-0.732;2023-01-19T09:40:41;99759.87;;;-3.55;100.00
46241;BME280;31961;52.416;-0.732;2023-01-19T09:43:13;99770.14;;;-3.49;100.00
46241;BME280;31961;52.416;-0.732;2023-01-19T09:45:46;99773.60;;;-4.19;100.00
46241;BME280;31961;52.416;-0.732;2023-01-19T09:48:27;99775.91;;;-3.41;100.00
46241;BME280;31961;52.416;-0.732;2023-01-19T09:50:59;99771.39;;;-3.91;100.00
46241;BME280;31961;52.416;-0.732;2023-01-19T09:53:38;99769.26;;;-3.51;100.00
46241;BME280;31961;52.416;-0.732;2023-01-19T09:56:11;99767.91;;;-2.76;100.00
46241;BME280;31961;52.416;-0.732;2023-01-19T09:58:40;99766.59;;;-3.09;100.00
46241;BME280;31961;52.416;-0.732;2023-01-19T10:01:20;99770.29;;;-3.74;100.00
46241;BME280;31961;52.416;-0.732;2023-01-19T10:03:57;99770.44;;;-3.26;100.00
46241;BME280;31961;52.416;-0.732;2023-01-19T10:06:31;99771.17;;;-3.26;100.00
46241;BME280;31961;52.416;-0.732;2023-01-19T10:09:04;99774.79;;;-3.59;100.00
46241;BME280;31961;52.416;-0.732;2023-01-19T10:11:38;99778.36;;;-3.03;100.00
46241;BME280;31961;52.416;-0.732;2023-01-19T10:14:12;99781.80;;;-3.82;100.00
46241;BME280;31961;52.416;-0.732;2023-01-19T10:16:47;99790.21;;;-3.85;100.00
46241;BME280;31961;52.416;-0.732;2023-01-19T10:19:22;99780.63;;;-3.39;100.00
46241;BME280;31961;52.416;-0.732;2023-01-19T10:21:52;99781.65;;;-3.92;100.00
46241;BME280;31961;52.416;-0.732;2023-01-19T10:24:25;99777.65;;;-3.54;100.00
46241;BME280;31961;52.416;-0.732;2023-01-19T10:26:55;99773.09;;;-3.43;100.00
46241;BME280;31961;52.416;-0.732;2023-01-19T10:29:25;99773.82;;;-3.64;100.00
46241;BME280;31961;52.416;-0.732;2023-01-19T10:32:03;99774.73;;;-3.38;100.00
46241;BME280;31961;52.416;-0.732;2023-01-19T10:34:33;99776.96;;;-3.40;100.00
46241;BME280;31961;52.416;-0.732;2023-01-19T10:37:04;99777.69;;;-3.83;100.00
46241;BME280;31961;52.416;-0.732;2023-01-19T10:39:31;99776.54;;;-3.27;100.00
46241;BME280;31961;52.416;-0.732;2023-01-19T10:42:01;99780.42;;;-4.26;100.00
46241;BME280;31961;52.416;-0.732;2023-01-19T10:44:35;99787.81;;;-3.79;100.00
46241;BME280;31961;52.416;-0.732;2023-01-19T10:47:05;99782.73;;;-3.49;100.00
46241;BME280;31961;52.416;-0.732;2023-01-19T10:49:39;99785.10;;;-2.94;100.00
46241;BME280;31961;52.416;-0.732;2023-01-19T10:52:17;99780.31;;;-2.28;100.00
46241;BME280;31961;52.416;-0.732;2023-01-19T10:54:45;99779.18;;;-2.99;100.00
46241;BME280;31961;52.416;-0.732;2023-01-19T10:57:22;99778.44;;;-2.56;100.00
46241;BME280;31961;52.416;-0.732;2023-01-19T10:59:51;99776.67;;;-2.30;100.00
46241;BME280;31961;52.416;-0.732;2023-01-19T11:02:20;99787.10;;;-2.45;100.00
46241;BME280;31961;52.416;-0.732;2023-01-19T11:04:50;99785.90;;;-2.68;100.00
46241;BME280;31961;52.416;-0.732;2023-01-19T11:07:20;99786.55;;;-2.92;100.00
46241;BME280;31961;52.416;-0.732;2023-01-19T11:09:48;99784.71;;;-3.26;100.00
46241;BME280;31961;52.416;-0.732;2023-01-19T11:12:18;99786.44;;;-3.03;100.00
46241;BME280;31961;52.416;-0.732;2023-01-19T11:14:46;99792.28;;;-2.72;100.00
46241;BME280;31961;52.416;-0.732;2023-01-19T11:17:18;99792.39;;;-2.53;100.00
46241;BME280;31961;52.416;-0.732;2023-01-19T11:19:52;99788.59;;;-2.89;100.00
46241;BME280;31961;52.416;-0.732;2023-01-19T11:22:26;99786.63;;;-2.08;100.00
46241;BME280;31961;52.416;-0.732;2023-01-19T11:24:58;99792.73;;;-2.49;100.00
46241;BME280;31961;52.416;-0.732;2023-01-19T11:27:26;99792.09;;;-2.87;100.00
46241;BME280;31961;52.416;-0.732;2023-01-19T11:30:00;99793.95;;;-3.16;100.00
46241;BME280;31961;52.416;-0.732;2023-01-19T11:32:29;99794.52;;;-2.99;100.00
46241;BME280;31961;52.416;-0.732;2023-01-19T11:34:56;99797.17;;;-2.19;100.00
46241;BME280;31961;52.416;-0.732;2023-01-19T11:37:27;99799.36;;;-2.70;100.00
46241;BME280;31961;52.416;-0.732;2023-01-19T11:39:57;99792.97;;;-2.00;100.00
46241;BME280;31961;52.416;-0.732;2023-01-19T11:42:25;99795.43;;;-2.83;100.00
46241;BME280;31961;52.416;-0.732;2023-01-19T11:45:00;99791.70;;;-2.31;100.00
46241;BME280;31961;52.416;-0.732;2023-01-19T11:47:33;99783.54;;;-1.88;100.00
46241;BME280;31961;52.416;-0.732;2023-01-19T11:50:05;99783.19;;;-1.72;100.00
46241;BME280;31961;52.416;-0.732;2023-01-19T11:52:42;99787.50;;;-2.27;100.00
46241;BME280;31961;52.416;-0.732;2023-01-19T11:55:17;99796.95;;;-2.08;100.00
46241;BME280;31961;52.416;-0.732;2023-01-19T11:57:49;99793.03;;;-2.33;100.00
46241;BME280;31961;52.416;-0.732;2023-01-19T12:00:23;99787.10;;;-2.09;100.00
46241;BME280;31961;52.416;-0.732;2023-01-19T12:02:54;99781.49;;;-1.73;100.00
46241;BME280;31961;52.416;-0.732;2023-01-19T12:05:26;99785.38;;;-1.87;100.00
46241;BME280;31961;52.416;-0.732;2023-01-19T12:07:57;99780.24;;;-2.03;100.00
46241;BME280;31961;52.416;-0.732;2023-01-19T12:10:28;99777.18;;;-1.45;100.00
46241;BME280;31961;52.416;-0.732;2023-01-19T12:12:58;99775.09;;;-1.50;100.00
46241;BME280;31961;52.416;-0.732;2023-01-19T12:15:31;99772.66;;;-1.22;100.00
46241;BME280;31961;52.416;-0.732;2023-01-19T12:18:00;99773.38;;;-1.67;100.00
46241;BME280;31961;52.416;-0.732;2023-01-19T12:20:31;99773.79;;;-1.68;100.00
46241;BME280;31961;52.416;-0.732;2023-01-19T12:23:10;99764.26;;;-1.42;100.00
46241;BME280;31961;52.416;-0.732;2023-01-19T12:25:50;99764.39;;;-1.46;100.00
46241;BME280;31961;52.416;-0.732;2023-01-19T12:28:31;99775.28;;;-1.48;100.00
46241;BME280;31961;52.416;-0.732;2023-01-19T12:31:00;99777.26;;;-1.37;100.00
46241;BME280;31961;52.416;-0.732;2023-01-19T12:33:32;99773.46;;;-1.45;100.00
46241;BME280;31961;52.416;-0.732;2023-01-19T12:36:03;99768.75;;;-1.69;100.00
46241;BME280;31961;52.416;-0.732;2023-01-19T12:38:35;99776.54;;;-1.80;100.00
46241;BME280;31961;52.416;-0.732;2023-01-19T12:41:25;99774.08;;;-1.62;100.00
46241;BME280;31961;52.416;-0.732;2023-01-19T12:44:29;99769.96;;;-0.65;100.00
46241;BME280;31961;52.416;-0.732;2023-01-19T12:46:58;99773.09;;;-0.76;100.00
46241;BME280;31961;52.416;-0.732;2023-01-19T12:49:28;99772.61;;;-1.41;100.00
46241;BME280;31961;52.416;-0.732;2023-01-19T12:52:13;99770.91;;;-1.27;100.00